Weather at Graphic Scanning Corporation Heliport

Public forecast

Using degrees Fahrenheit for public forecast. Weather courtesy of forecast.io.

Closest aviation weather report (METAR) to Graphic Scanning Corporation Heliport

Closest report is Teterboro Airport, 3.8 nm (7.1 km) SW. Retrieved 2022/01/22 20:51 UTC (49 minutes ago):

KTEB 222051Z 00000KT 10SM CLR M01/M12 A3023 RMK AO2 SLP235 T10111122 56028

Closest aviation forecast (TAF) to Graphic Scanning Corporation Heliport

Closest forecast is Teterboro Airport, 3.8 nm (7.1 km) SW. Retrieved 2022/01/22 18:36 UTC (3 hours ago):

TAF KTEB 221733Z 2218/2324 VRB02KT P6SM SCT250 FM231300 26009KT P6SM SCT050 SCT150 BKN250